createdAt,value
2018-05-11T00:01:02.088Z,5.00
2018-05-11T00:03:30.952Z,5.00
2018-05-11T00:05:59.785Z,3.87
2018-05-11T00:08:28.639Z,4.17
2018-05-11T00:10:57.479Z,4.37
2018-05-11T00:13:26.351Z,4.47
2018-05-11T00:15:55.259Z,3.63
2018-05-11T00:18:24.089Z,3.97
2018-05-11T00:20:52.937Z,4.60
2018-05-11T00:23:21.801Z,4.67
2018-05-11T00:25:50.649Z,4.73
2018-05-11T00:28:19.617Z,3.07
2018-05-11T00:30:48.479Z,4.40
2018-05-11T00:33:17.557Z,3.70
2018-05-11T00:35:46.452Z,3.50
2018-05-11T00:38:15.290Z,3.80
2018-05-11T00:40:44.152Z,3.77
2018-05-11T00:43:13.042Z,3.80
2018-05-11T00:45:41.898Z,4.47
2018-05-11T00:48:10.745Z,4.73
2018-05-11T00:50:39.621Z,4.60
2018-05-11T00:53:08.461Z,3.60
2018-05-11T00:55:43.136Z,4.50
2018-05-11T00:58:11.980Z,4.83
2018-05-11T01:00:40.869Z,3.60
2018-05-11T01:03:09.718Z,4.03
2018-05-11T01:05:39.070Z,3.97
2018-05-11T01:08:07.932Z,3.93
2018-05-11T01:10:37.093Z,4.30
2018-05-11T01:13:05.960Z,4.23
2018-05-11T01:15:34.870Z,4.33
2018-05-11T01:18:03.764Z,4.47
2018-05-11T01:20:32.590Z,4.33
2018-05-11T01:23:01.537Z,4.13
2018-05-11T01:25:30.330Z,4.40
2018-05-11T01:27:59.215Z,4.73
2018-05-11T01:30:28.092Z,4.80
2018-05-11T01:32:57.110Z,4.27
2018-05-11T01:35:25.971Z,4.00
2018-05-11T01:37:54.860Z,5.27
2018-05-11T01:40:23.720Z,4.33
2018-05-11T01:42:52.559Z,4.17
2018-05-11T01:45:21.423Z,3.80
2018-05-11T01:47:50.312Z,3.87
2018-05-11T01:50:20.101Z,4.37
2018-05-11T01:52:48.917Z,3.80
2018-05-11T01:55:17.809Z,4.10
2018-05-11T01:57:47.454Z,4.53
2018-05-11T02:00:16.313Z,5.10
2018-05-11T02:02:45.175Z,4.07
2018-05-11T02:05:14.043Z,4.37
2018-05-11T02:07:42.871Z,4.50
2018-05-11T02:10:11.731Z,4.70
2018-05-11T02:12:40.567Z,4.03
2018-05-11T02:15:09.409Z,4.17
2018-05-11T02:17:38.303Z,4.20
2018-05-11T02:20:07.173Z,4.30
2018-05-11T02:22:36.013Z,4.47
2018-05-11T02:25:04.861Z,4.53
2018-05-11T02:27:33.731Z,4.20
2018-05-11T02:30:02.597Z,4.30
2018-05-11T02:32:31.441Z,4.97
2018-05-11T02:35:00.307Z,4.73
2018-05-11T02:37:29.151Z,4.17
2018-05-11T02:39:58.007Z,4.53
2018-05-11T02:42:26.895Z,4.20
2018-05-11T02:44:55.733Z,4.80
2018-05-11T02:47:24.581Z,3.80
2018-05-11T02:49:53.423Z,4.27
2018-05-11T02:52:22.320Z,3.87
2018-05-11T02:54:51.237Z,4.30
2018-05-11T02:57:20.077Z,4.20
2018-05-11T02:59:48.930Z,3.47
2018-05-11T03:02:17.819Z,4.00
2018-05-11T03:04:46.645Z,4.30
2018-05-11T03:07:15.509Z,4.40
2018-05-11T03:09:44.374Z,4.60
2018-05-11T03:12:13.225Z,5.00
2018-05-11T03:14:42.175Z,4.90
2018-05-11T03:17:11.016Z,4.43
2018-05-11T03:19:39.873Z,4.80
2018-05-11T03:22:08.761Z,4.17
2018-05-11T03:24:37.669Z,4.40
2018-05-11T03:27:06.513Z,4.13
2018-05-11T03:29:35.356Z,4.60
2018-05-11T03:32:04.273Z,5.27
2018-05-11T03:34:33.128Z,4.50
2018-05-11T03:37:01.969Z,5.03
2018-05-11T03:39:30.834Z,3.97
2018-05-11T03:41:59.671Z,4.43
2018-05-11T03:44:28.578Z,4.23
2018-05-11T03:46:57.428Z,4.70
2018-05-11T03:49:26.317Z,4.43
2018-05-11T03:51:55.201Z,5.03
2018-05-11T03:54:24.070Z,5.53
2018-05-11T03:56:52.904Z,5.33
2018-05-11T03:59:21.773Z,4.33
2018-05-11T04:01:56.506Z,4.37
2018-05-11T04:04:31.337Z,5.10
2018-05-11T04:07:06.894Z,4.80
2018-05-11T04:09:35.730Z,4.00
2018-05-11T04:12:04.627Z,4.50
2018-05-11T04:14:33.458Z,4.50
2018-05-11T04:17:02.366Z,4.50
2018-05-11T04:19:31.238Z,4.67
2018-05-11T04:22:00.098Z,4.00
2018-05-11T04:24:28.965Z,5.13
2018-05-11T04:26:57.806Z,3.87
2018-05-11T04:29:26.674Z,5.03
2018-05-11T04:31:55.548Z,4.60
2018-05-11T04:34:24.406Z,4.10
2018-05-11T04:36:53.298Z,3.83
2018-05-11T04:39:22.130Z,3.70
2018-05-11T04:41:50.978Z,4.17
2018-05-11T04:44:19.828Z,4.63
2018-05-11T04:46:48.674Z,4.23
2018-05-11T04:49:18.733Z,3.47
2018-05-11T04:51:47.558Z,4.20
2018-05-11T04:54:16.957Z,4.80
2018-05-11T04:56:45.808Z,4.57
2018-05-11T04:59:15.327Z,5.07
2018-05-11T05:01:44.243Z,4.93
2018-05-11T05:04:13.094Z,5.40
2018-05-11T05:06:41.928Z,4.90
2018-05-11T05:09:11.599Z,4.27
2018-05-11T05:11:40.447Z,5.67
2018-05-11T05:14:09.302Z,5.70
2018-05-11T05:16:38.158Z,5.97
2018-05-11T05:19:08.188Z,6.37
2018-05-11T05:21:37.234Z,6.93
2018-05-11T05:24:06.085Z,6.43
2018-05-11T05:26:34.999Z,5.73
2018-05-11T05:29:03.871Z,6.73
2018-05-11T05:31:32.713Z,7.83
2018-05-11T05:34:01.607Z,6.90
2018-05-11T05:36:32.139Z,8.27
2018-05-11T05:39:01.000Z,8.03
2018-05-11T05:41:29.867Z,7.73
2018-05-11T05:43:59.490Z,7.97
2018-05-11T05:46:28.389Z,7.87
2018-05-11T05:48:57.269Z,10.50
2018-05-11T05:51:26.141Z,10.53
2018-05-11T05:56:36.165Z,12.00
2018-05-11T05:59:13.748Z,14.73
2018-05-11T06:01:42.616Z,12.43
2018-05-11T06:06:50.742Z,10.70
2018-05-11T06:09:19.584Z,12.57
2018-05-11T06:11:48.457Z,10.80
2018-05-11T06:14:17.307Z,11.93
2018-05-11T06:16:46.163Z,10.57
2018-05-11T06:19:15.186Z,10.33
2018-05-11T06:21:44.047Z,11.00
2018-05-11T06:24:12.881Z,9.20
2018-05-11T06:26:41.764Z,9.20
2018-05-11T06:29:10.625Z,9.07
2018-05-11T06:31:39.469Z,8.33
2018-05-11T06:34:08.357Z,8.33
2018-05-11T06:36:37.245Z,8.30
2018-05-11T06:39:06.104Z,8.53
2018-05-11T06:41:34.953Z,8.17
2018-05-11T06:44:03.813Z,8.07
2018-05-11T06:46:32.661Z,7.10
2018-05-11T06:49:01.513Z,7.07
2018-05-11T06:51:30.427Z,6.93
2018-05-11T06:54:00.278Z,7.00
2018-05-11T06:56:29.125Z,6.83
2018-05-11T06:58:58.034Z,6.60
2018-05-11T07:01:26.885Z,6.77
2018-05-11T07:03:56.981Z,6.97
2018-05-11T07:06:25.851Z,6.17
2018-05-11T07:08:54.737Z,6.60
2018-05-11T07:11:23.589Z,5.67
2018-05-11T07:13:52.435Z,5.20
2018-05-11T07:16:21.293Z,5.20
2018-05-11T07:18:50.135Z,5.67
2018-05-11T07:21:19.733Z,5.93
2018-05-11T07:23:48.591Z,5.87
2018-05-11T07:26:17.438Z,6.00
2018-05-11T07:28:46.284Z,5.30
2018-05-11T07:31:15.135Z,5.47
2018-05-11T07:33:44.041Z,6.17
2018-05-11T07:36:14.368Z,5.60
2018-05-11T07:38:43.248Z,6.10
2018-05-11T07:41:13.044Z,5.60
2018-05-11T07:43:41.891Z,5.90
2018-05-11T07:46:10.763Z,5.90
2018-05-11T07:48:39.635Z,5.80
2018-05-11T07:51:08.505Z,5.20
2018-05-11T07:53:37.405Z,5.20
2018-05-11T07:56:07.137Z,5.07
2018-05-11T07:58:37.593Z,5.00
2018-05-11T08:01:06.498Z,4.33
2018-05-11T08:03:35.368Z,4.50
2018-05-11T08:06:04.213Z,4.50
2018-05-11T08:08:33.070Z,4.57
2018-05-11T08:11:01.922Z,4.37
2018-05-11T08:13:30.782Z,4.63
2018-05-11T08:16:00.495Z,5.40
2018-05-11T08:18:29.370Z,4.23
2018-05-11T08:20:58.614Z,5.03
2018-05-11T08:23:27.498Z,4.80
2018-05-11T08:25:59.250Z,5.10
2018-05-11T08:28:28.143Z,4.77
2018-05-11T08:33:33.507Z,4.43
2018-05-11T08:36:02.351Z,4.13
2018-05-11T08:38:31.325Z,4.77
2018-05-11T08:41:00.160Z,4.50
2018-05-11T08:43:29.049Z,5.07
2018-05-11T08:45:57.881Z,4.50
2018-05-11T08:48:26.756Z,4.03
2018-05-11T08:50:55.624Z,4.40
2018-05-11T08:53:24.465Z,4.33
2018-05-11T08:55:53.408Z,4.33
2018-05-11T08:58:22.546Z,4.17
2018-05-11T09:00:51.995Z,4.57
2018-05-11T09:03:21.786Z,4.67
2018-05-11T09:05:50.646Z,4.43
2018-05-11T09:08:20.141Z,4.27
2018-05-11T09:10:48.960Z,4.30
2018-05-11T09:13:17.816Z,4.17
2018-05-11T09:15:46.698Z,4.63
2018-05-11T09:18:15.555Z,4.40
2018-05-11T09:20:44.438Z,4.60
2018-05-11T09:23:13.337Z,5.03
2018-05-11T09:25:42.186Z,4.87
2018-05-11T09:28:11.032Z,4.57
2018-05-11T09:30:39.922Z,5.10
2018-05-11T09:33:08.790Z,4.87
2018-05-11T09:35:38.295Z,6.03
2018-05-11T09:38:07.193Z,5.53
2018-05-11T09:40:36.057Z,5.83
2018-05-11T09:43:04.963Z,6.10
2018-05-11T09:45:33.806Z,6.80
2018-05-11T09:48:02.662Z,6.27
2018-05-11T09:50:31.496Z,6.90
2018-05-11T09:53:00.358Z,6.20
2018-05-11T09:55:29.197Z,5.77
2018-05-11T09:57:58.095Z,6.20
2018-05-11T10:00:26.968Z,7.60
2018-05-11T10:02:55.829Z,7.47
2018-05-11T10:05:24.702Z,7.20
2018-05-11T10:07:54.386Z,7.23
2018-05-11T10:10:23.247Z,7.20
2018-05-11T10:12:52.095Z,7.80
2018-05-11T10:15:20.951Z,7.40
2018-05-11T10:17:49.816Z,7.70
2018-05-11T10:20:19.002Z,7.77
2018-05-11T10:22:47.840Z,6.83
2018-05-11T10:25:16.797Z,7.20
2018-05-11T10:27:45.686Z,7.00
2018-05-11T10:30:14.546Z,7.67
2018-05-11T10:32:43.393Z,7.10
2018-05-11T10:35:12.252Z,7.10
2018-05-11T10:37:41.094Z,7.50
2018-05-11T10:40:10.245Z,7.73
2018-05-11T10:42:39.103Z,7.17
2018-05-11T10:45:08.007Z,7.60
2018-05-11T10:47:36.866Z,8.03
2018-05-11T10:50:05.804Z,7.93
2018-05-11T10:52:34.652Z,8.27
2018-05-11T10:55:03.538Z,9.00
2018-05-11T10:57:32.574Z,8.30
2018-05-11T11:00:01.653Z,7.73
2018-05-11T11:02:30.507Z,8.60
2018-05-11T11:05:00.785Z,8.87
2018-05-11T11:07:30.468Z,8.47
2018-05-11T11:09:59.311Z,7.80
2018-05-11T11:12:28.162Z,8.80
2018-05-11T11:14:57.029Z,9.50
2018-05-11T11:17:26.106Z,9.73
2018-05-11T11:19:54.978Z,10.07
2018-05-11T11:22:23.839Z,10.87
2018-05-11T11:24:52.673Z,10.90
2018-05-11T11:27:21.551Z,10.27
2018-05-11T11:29:50.394Z,10.37
2018-05-11T11:32:19.241Z,11.23
2018-05-11T11:34:48.136Z,10.33
2018-05-11T11:37:17.019Z,10.73
2018-05-11T11:39:46.855Z,11.07
2018-05-11T11:42:15.728Z,11.03
2018-05-11T11:44:44.561Z,11.43
2018-05-11T11:47:13.441Z,11.93
2018-05-11T11:49:42.356Z,12.17
2018-05-11T11:52:11.281Z,11.93
2018-05-11T11:54:40.112Z,12.67
2018-05-11T11:57:08.969Z,12.83
2018-05-11T11:59:37.830Z,13.70
2018-05-11T12:02:06.777Z,13.03
2018-05-11T12:04:35.765Z,12.43
2018-05-11T12:07:04.667Z,13.33
2018-05-11T12:09:33.526Z,12.20
2018-05-11T12:12:02.395Z,13.33
2018-05-11T12:14:31.245Z,13.17
2018-05-11T12:17:00.132Z,13.10
2018-05-11T12:19:28.987Z,11.40
2018-05-11T12:21:57.850Z,11.93
2018-05-11T12:24:26.807Z,11.77
2018-05-11T12:26:55.668Z,11.70
2018-05-11T12:29:24.526Z,12.40
2018-05-11T12:31:53.393Z,14.33
2018-05-11T12:34:22.337Z,14.37
2018-05-11T12:36:51.215Z,13.93
2018-05-11T12:39:20.077Z,13.30
2018-05-11T12:41:48.967Z,14.90
2018-05-11T12:44:17.825Z,14.80
2018-05-11T12:46:46.785Z,14.70
2018-05-11T12:49:15.677Z,14.87
2018-05-11T12:51:44.540Z,14.53
2018-05-11T12:54:13.402Z,14.93
2018-05-11T12:56:42.264Z,14.27
2018-05-11T12:59:11.104Z,13.73
2018-05-11T13:01:39.964Z,15.27
2018-05-11T13:04:08.838Z,14.80
2018-05-11T13:06:37.702Z,14.43
2018-05-11T13:09:06.581Z,13.67
2018-05-11T13:11:35.532Z,14.20
2018-05-11T13:14:04.446Z,14.27
2018-05-11T13:16:33.308Z,13.33
2018-05-11T13:19:02.170Z,13.90
2018-05-11T13:21:31.010Z,14.57
2018-05-11T13:23:59.942Z,14.80
2018-05-11T13:26:28.778Z,14.43
2018-05-11T13:28:58.266Z,14.70
2018-05-11T13:31:27.109Z,13.90
2018-05-11T13:33:55.983Z,14.40
2018-05-11T13:36:24.969Z,14.93
2018-05-11T13:38:53.820Z,13.70
2018-05-11T13:41:22.662Z,14.17
2018-05-11T13:43:51.528Z,14.57
2018-05-11T13:46:20.366Z,13.50
2018-05-11T13:48:49.335Z,13.30
2018-05-11T13:51:18.166Z,12.10
2018-05-11T13:53:47.012Z,11.67
2018-05-11T13:56:16.030Z,14.70
2018-05-11T13:58:44.915Z,13.60
2018-05-11T14:01:13.779Z,12.90
2018-05-11T14:03:42.641Z,12.77
2018-05-11T14:06:11.590Z,12.63
2018-05-11T14:08:40.445Z,12.43
2018-05-11T14:11:09.307Z,11.90
2018-05-11T14:13:38.159Z,12.43
2018-05-11T14:16:07.024Z,12.67
2018-05-11T14:18:35.894Z,12.80
2018-05-11T14:21:04.792Z,13.07
2018-05-11T14:23:33.724Z,14.10
2018-05-11T14:26:02.639Z,12.37
2018-05-11T14:28:31.647Z,12.33
2018-05-11T14:31:00.531Z,12.00
2018-05-11T14:33:29.371Z,12.60
2018-05-11T14:35:58.265Z,12.97
2018-05-11T14:38:27.172Z,12.73
2018-05-11T14:40:56.032Z,12.80
2018-05-11T14:43:24.908Z,12.53
2018-05-11T14:45:53.818Z,12.00
2018-05-11T14:48:22.793Z,12.60
2018-05-11T14:50:51.640Z,11.93
2018-05-11T14:53:20.534Z,12.50
2018-05-11T14:55:49.384Z,12.53
2018-05-11T14:58:18.496Z,12.23
2018-05-11T15:00:47.359Z,12.30
2018-05-11T15:03:16.240Z,12.07
2018-05-11T15:05:45.086Z,12.37
2018-05-11T15:08:14.582Z,12.13
2018-05-11T15:10:43.426Z,11.93
2018-05-11T15:13:12.290Z,12.93
2018-05-11T15:15:41.178Z,13.47
2018-05-11T15:18:10.026Z,12.73
2018-05-11T15:20:38.910Z,11.83
2018-05-11T15:23:07.749Z,11.83
2018-05-11T15:25:36.657Z,12.40
2018-05-11T15:28:05.565Z,11.90
2018-05-11T15:30:34.439Z,11.70
2018-05-11T15:33:03.311Z,12.77
2018-05-11T15:35:32.182Z,12.60
2018-05-11T15:38:01.032Z,12.67
2018-05-11T15:40:29.966Z,13.30
2018-05-11T15:42:58.866Z,13.43
2018-05-11T15:45:27.714Z,13.30
2018-05-11T15:47:56.602Z,11.77
2018-05-11T15:50:25.577Z,13.40
2018-05-11T15:52:54.462Z,12.93
2018-05-11T15:55:23.318Z,12.37
2018-05-11T15:57:52.197Z,14.17
2018-05-11T16:00:21.083Z,13.27
2018-05-11T16:02:49.945Z,12.67
2018-05-11T16:05:18.977Z,12.60
2018-05-11T16:07:47.843Z,12.37
2018-05-11T16:10:16.815Z,13.37
2018-05-11T16:12:45.751Z,13.43
2018-05-11T16:15:14.613Z,13.57
2018-05-11T16:17:43.491Z,13.43
2018-05-11T16:20:12.334Z,14.20
2018-05-11T16:22:41.199Z,15.17
2018-05-11T16:25:10.094Z,13.37
2018-05-11T16:27:38.983Z,13.40
2018-05-11T16:30:07.831Z,12.83
2018-05-11T16:32:36.714Z,14.33
2018-05-11T16:35:05.618Z,13.27
2018-05-11T16:37:34.543Z,13.80
2018-05-11T16:40:03.384Z,12.40
2018-05-11T16:42:32.254Z,12.30
2018-05-11T16:45:01.106Z,11.17
2018-05-11T16:47:29.975Z,11.37
2018-05-11T16:49:58.873Z,12.00
2018-05-11T16:52:27.755Z,11.77
2018-05-11T16:54:56.640Z,10.43
2018-05-11T16:57:25.654Z,9.97
2018-05-11T16:59:54.508Z,10.90
2018-05-11T17:02:23.346Z,10.10
2018-05-11T17:04:52.208Z,10.37
2018-05-11T17:07:21.055Z,10.23
2018-05-11T17:09:49.920Z,11.10
2018-05-11T17:12:18.772Z,11.73
2018-05-11T17:14:47.636Z,11.30
2018-05-11T17:17:16.648Z,10.43
2018-05-11T17:19:45.564Z,10.90
2018-05-11T17:22:14.406Z,11.53
2018-05-11T17:24:43.285Z,11.43
2018-05-11T17:27:12.127Z,11.33
2018-05-11T17:29:40.985Z,11.53
2018-05-11T17:32:09.877Z,10.23
2018-05-11T17:34:38.725Z,10.40
2018-05-11T17:37:07.611Z,10.93
2018-05-11T17:39:36.469Z,10.83
2018-05-11T17:42:05.357Z,10.20
2018-05-11T17:44:34.205Z,9.07
2018-05-11T17:47:03.052Z,9.60
2018-05-11T17:49:31.937Z,10.20
2018-05-11T17:52:00.885Z,10.60
2018-05-11T17:54:30.575Z,9.80
2018-05-11T17:57:00.259Z,8.47
2018-05-11T17:59:29.117Z,9.00
2018-05-11T18:01:57.989Z,8.97
2018-05-11T18:04:26.853Z,8.87
2018-05-11T18:06:55.707Z,9.57
2018-05-11T18:09:24.639Z,9.10
2018-05-11T18:11:53.489Z,9.40
2018-05-11T18:14:22.363Z,9.00
2018-05-11T18:16:51.200Z,8.00
2018-05-11T18:19:20.045Z,9.07
2018-05-11T18:21:48.968Z,10.13
2018-05-11T18:24:17.854Z,10.50
2018-05-11T18:26:47.081Z,10.10
2018-05-11T18:29:15.950Z,11.07
2018-05-11T18:31:44.802Z,12.77
2018-05-11T18:34:13.773Z,11.20
2018-05-11T18:36:42.626Z,13.13
2018-05-11T18:39:11.528Z,12.57
2018-05-11T18:41:40.392Z,12.87
2018-05-11T18:44:09.266Z,11.80
2018-05-11T18:46:38.144Z,12.67
2018-05-11T18:49:07.020Z,13.53
2018-05-11T18:51:36.022Z,12.83
2018-05-11T18:54:05.243Z,14.67
2018-05-11T18:56:34.634Z,13.97
2018-05-11T18:59:03.527Z,14.43
2018-05-11T19:01:32.379Z,14.10
2018-05-11T19:04:01.226Z,13.47
2018-05-11T19:06:30.172Z,14.73
2018-05-11T19:08:59.092Z,16.27
2018-05-11T19:11:27.954Z,15.87
2018-05-11T19:13:56.796Z,15.37
2018-05-11T19:16:25.658Z,14.80
2018-05-11T19:18:54.555Z,14.97
2018-05-11T19:21:23.513Z,16.27
2018-05-11T19:23:52.398Z,15.47
2018-05-11T19:26:21.267Z,16.70
2018-05-11T19:28:50.136Z,16.60
2018-05-11T19:31:19.002Z,17.57
2018-05-11T19:33:47.838Z,17.70
2018-05-11T19:36:16.714Z,15.97
2018-05-11T19:38:45.559Z,16.27
2018-05-11T19:41:14.417Z,16.50
2018-05-11T19:43:43.250Z,15.27
2018-05-11T19:46:12.129Z,15.43
2018-05-11T19:48:40.983Z,14.20
2018-05-11T19:51:10.030Z,14.33
2018-05-11T19:53:38.887Z,14.33
2018-05-11T19:56:07.734Z,17.63
2018-05-11T19:58:36.656Z,18.30
2018-05-11T20:01:05.522Z,17.87
2018-05-11T20:03:34.435Z,18.20
2018-05-11T20:06:03.285Z,18.60
2018-05-11T20:08:32.155Z,19.13
2018-05-11T20:11:01.053Z,18.30
2018-05-11T20:13:29.914Z,16.63
2018-05-11T20:15:58.768Z,16.97
2018-05-11T20:18:27.661Z,16.43
2018-05-11T20:20:56.533Z,17.07
2018-05-11T20:23:25.378Z,17.40
2018-05-11T20:25:54.249Z,17.27
2018-05-11T20:28:23.119Z,16.97
2018-05-11T20:30:51.977Z,17.53
2018-05-11T20:33:20.846Z,16.90
2018-05-11T20:35:49.718Z,18.10
2018-05-11T20:38:19.246Z,17.13
2018-05-11T20:40:48.105Z,18.93
2018-05-11T20:43:17.710Z,17.87
2018-05-11T20:45:46.669Z,18.63
2018-05-11T20:48:15.461Z,17.17
2018-05-11T20:50:44.308Z,17.30
2018-05-11T20:53:13.190Z,18.33
2018-05-11T20:55:42.060Z,16.67
2018-05-11T20:58:10.920Z,17.60
2018-05-11T21:00:39.808Z,16.83
2018-05-11T21:03:08.674Z,17.00
2018-05-11T21:05:38.257Z,17.80
2018-05-11T21:08:07.252Z,19.00
2018-05-11T21:10:36.126Z,17.60
2018-05-11T21:13:05.012Z,18.03
2018-05-11T21:15:33.992Z,17.37
2018-05-11T21:18:02.908Z,17.90
2018-05-11T21:20:31.817Z,16.70
2018-05-11T21:23:00.675Z,17.73
2018-05-11T21:25:30.384Z,17.17
2018-05-11T21:27:59.240Z,16.30
2018-05-11T21:30:28.122Z,16.67
2018-05-11T21:32:56.952Z,16.70
2018-05-11T21:35:25.827Z,16.73
2018-05-11T21:37:54.702Z,14.80
2018-05-11T21:40:23.576Z,16.30
2018-05-11T21:42:52.428Z,15.70
2018-05-11T21:45:21.298Z,17.23
2018-05-11T21:47:50.168Z,16.03
2018-05-11T21:50:19.150Z,14.87
2018-05-11T21:52:47.990Z,16.83
2018-05-11T21:55:16.986Z,14.83
2018-05-11T21:57:45.932Z,16.27
2018-05-11T22:00:14.845Z,14.87
2018-05-11T22:02:43.706Z,14.73
2018-05-11T22:05:12.675Z,15.40
2018-05-11T22:07:41.542Z,14.10
2018-05-11T22:10:10.553Z,14.97
2018-05-11T22:12:39.458Z,14.93
2018-05-11T22:15:08.390Z,15.13
2018-05-11T22:17:37.222Z,13.43
2018-05-11T22:20:06.070Z,14.83
2018-05-11T22:22:34.992Z,13.70
2018-05-11T22:25:03.854Z,15.20
2018-05-11T22:27:32.742Z,14.17
2018-05-11T22:30:01.588Z,14.27
2018-05-11T22:32:30.463Z,14.23
2018-05-11T22:34:59.312Z,13.87
2018-05-11T22:37:28.208Z,12.87
2018-05-11T22:39:57.071Z,13.93
2018-05-11T22:42:25.936Z,14.10
2018-05-11T22:44:54.826Z,13.57
2018-05-11T22:47:23.734Z,12.70
2018-05-11T22:49:52.576Z,12.63
2018-05-11T22:52:21.562Z,11.83
2018-05-11T22:54:50.423Z,12.63
2018-05-11T22:57:19.710Z,11.90
2018-05-11T23:02:12.562Z,12.03
2018-05-11T23:04:41.418Z,12.17
2018-05-11T23:07:10.270Z,12.47
2018-05-11T23:09:39.138Z,12.97
2018-05-11T23:12:07.982Z,12.63
2018-05-11T23:14:37.062Z,11.87
2018-05-11T23:17:06.354Z,11.90
2018-05-11T23:19:35.206Z,12.70
2018-05-11T23:22:04.062Z,12.80
2018-05-11T23:24:32.934Z,12.73
2018-05-11T23:27:01.851Z,11.77
2018-05-11T23:29:30.751Z,12.47
2018-05-11T23:31:59.600Z,12.33
2018-05-11T23:34:28.597Z,12.47
2018-05-11T23:36:57.506Z,12.47
2018-05-11T23:39:26.728Z,11.63
2018-05-11T23:41:55.661Z,11.80
2018-05-11T23:44:24.579Z,12.17
2018-05-11T23:46:53.561Z,12.97
2018-05-11T23:49:22.404Z,13.10
2018-05-11T23:51:51.264Z,12.20
2018-05-11T23:54:20.112Z,11.77
2018-05-11T23:56:48.975Z,12.93
2018-05-11T23:59:17.881Z,12.57
